首页
METAR-TAF:

METAR-TAF

机场 :

重庆, 中华人民共和国

重庆江北国际机场

纬度: 29-31N, 经度: 106-29E, 海拔: 351米

当前天气观测

该预报发布于19分钟前的03:00 UTC
风速4节,风向
温度 9°C
湿度 81%
气压 1022 hPa
能見度: 4000
少量云层高于2300英尺
轻雾

METAR: ZUCK 200300Z 36002MPS 4000 BR FEW023 09/06 Q1022 NOSIG

时间: 11:19 (03:19 UTC)

预报

该预报发布于8小时和7分钟前的19:12 UTC
预报有效从20日的 00点(UTC)到 20日的 24点(UTC)
风速6节,风向北转东北
能見度: 3000
散云层高于3000英尺
阴天层高于5000英尺
轻雾
成为
从 20日的 12点(UTC)到 20日的 13点(UTC)
能見度: 2000
少量云层高于300英尺
散云层高于700英尺
阴天层高于3300英尺
小雨, 轻雾

TAF: ZUCK 191912Z 2000/2024 02003MPS 3000 BR SCT030 OVC050 TX09/2008Z TN06/2022Z BECMG 2012/2013 2000 -RA BR FEW003 SCT007 OVC033

超过4000个机场的气象观测和天气预报(METAR&TAF报告)。

可查询的气象台以黄色和红色小点在地图上表示。

将鼠标移到小点上方,可查看气象台名称。

然后点击查看天气观测和预报。

如需切换地图:点击带黑十字的绿色按钮放大地图;点击带横线的绿色按钮缩小地图;或者点击绿色箭头查看邻近地区的地图。


METAR-TAF: